createdAt,value
2023-12-12T00:02:26.209Z,29.23
2023-12-12T00:04:53.004Z,27.83
2023-12-12T00:07:22.940Z,27.30
2023-12-12T00:09:49.731Z,28.63
2023-12-12T00:12:16.787Z,27.10
2023-12-12T00:14:47.728Z,28.02
2023-12-12T00:17:14.834Z,26.95
2023-12-12T00:19:44.781Z,28.85
2023-12-12T00:22:15.472Z,27.30
2023-12-12T00:24:42.344Z,27.90
2023-12-12T00:27:09.415Z,27.98
2023-12-12T00:29:37.222Z,27.05
2023-12-12T00:32:07.896Z,27.10
2023-12-12T00:34:38.785Z,28.30
2023-12-12T00:37:08.791Z,26.70
2023-12-12T00:39:40.303Z,28.27
2023-12-12T00:42:13.179Z,27.55
2023-12-12T00:44:40.057Z,28.25
2023-12-12T00:47:07.133Z,29.73
2023-12-12T00:49:37.098Z,28.25
2023-12-12T00:52:05.513Z,27.92
2023-12-12T00:54:37.568Z,28.02
2023-12-12T00:57:05.009Z,27.17
2023-12-12T00:59:31.769Z,27.50
2023-12-12T01:01:58.950Z,27.10
2023-12-12T01:04:25.827Z,27.40
2023-12-12T01:06:55.961Z,27.85
2023-12-12T01:09:22.754Z,27.10
2023-12-12T01:11:49.800Z,25.92
2023-12-12T01:14:16.621Z,27.77
2023-12-12T01:16:43.809Z,26.85
2023-12-12T01:19:10.756Z,27.00
2023-12-12T01:21:38.388Z,27.70
2023-12-12T01:24:05.400Z,27.17
2023-12-12T01:26:32.477Z,27.15
2023-12-12T01:28:59.355Z,26.25
2023-12-12T01:31:29.276Z,26.83
2023-12-12T01:33:56.207Z,27.50
2023-12-12T01:36:23.429Z,26.75
2023-12-12T01:38:50.546Z,26.85
2023-12-12T01:41:18.636Z,26.45
2023-12-12T01:43:47.862Z,26.00
2023-12-12T01:46:17.943Z,29.13
2023-12-12T01:48:45.328Z,29.92
2023-12-12T01:51:12.702Z,28.88
2023-12-12T01:53:44.307Z,28.67
2023-12-12T01:56:12.860Z,29.60
2023-12-12T01:58:42.078Z,28.05
2023-12-12T02:01:09.959Z,29.80
2023-12-12T02:03:37.721Z,28.00
2023-12-12T02:06:06.574Z,26.63
2023-12-12T02:08:33.680Z,27.63
2023-12-12T02:11:00.853Z,28.35
2023-12-12T02:13:33.612Z,27.63
2023-12-12T02:16:00.838Z,27.52
2023-12-12T02:18:28.332Z,30.15
2023-12-12T02:20:55.773Z,27.85
2023-12-12T02:23:25.557Z,27.73
2023-12-12T02:25:52.693Z,27.15
2023-12-12T02:28:19.547Z,26.98
2023-12-12T02:30:46.606Z,26.92
2023-12-12T02:33:13.479Z,26.40
2023-12-12T02:35:40.738Z,27.95
2023-12-12T02:38:07.565Z,27.83
2023-12-12T02:40:35.017Z,27.00
2023-12-12T02:43:01.911Z,26.58
2023-12-12T02:45:28.986Z,28.70
2023-12-12T02:47:55.852Z,26.95
2023-12-12T02:50:24.941Z,26.98
2023-12-12T02:52:53.861Z,27.83
2023-12-12T02:55:21.024Z,25.70
2023-12-12T02:57:47.919Z,25.33
2023-12-12T03:00:15.469Z,26.08
2023-12-12T03:02:42.344Z,27.05
2023-12-12T03:05:09.570Z,26.05
2023-12-12T03:07:37.020Z,27.00
2023-12-12T03:10:05.153Z,25.50
2023-12-12T03:12:32.345Z,24.88
2023-12-12T03:14:59.428Z,26.40
2023-12-12T03:17:30.011Z,26.02
2023-12-12T03:19:57.287Z,26.83
2023-12-12T03:22:24.206Z,27.55
2023-12-12T03:24:51.352Z,26.63
2023-12-12T03:27:21.186Z,26.85
2023-12-12T03:29:51.092Z,26.40
2023-12-12T03:32:18.200Z,24.67
2023-12-12T03:34:45.407Z,25.08
2023-12-12T03:37:16.776Z,25.38
2023-12-12T03:39:43.918Z,25.90
2023-12-12T03:42:13.431Z,27.83
2023-12-12T03:44:43.354Z,24.73
2023-12-12T03:47:11.393Z,25.98
2023-12-12T03:49:41.508Z,26.70
2023-12-12T03:52:08.641Z,25.98
2023-12-12T03:54:36.470Z,26.63
2023-12-12T03:57:04.355Z,26.70
2023-12-12T03:59:31.479Z,26.77
2023-12-12T04:01:58.653Z,25.52
2023-12-12T04:04:27.319Z,27.13
2023-12-12T04:06:54.227Z,26.55
2023-12-12T04:09:21.592Z,26.10
2023-12-12T04:11:51.138Z,25.60
2023-12-12T04:14:19.530Z,26.20
2023-12-12T04:16:47.952Z,26.15
2023-12-12T04:19:15.105Z,26.42
2023-12-12T04:21:45.336Z,27.40
2023-12-12T04:24:12.730Z,23.65
2023-12-12T04:26:39.573Z,25.88
2023-12-12T04:29:06.741Z,24.75
2023-12-12T04:31:33.597Z,26.27
2023-12-12T04:34:00.792Z,24.70
2023-12-12T04:36:28.064Z,25.63
2023-12-12T04:38:55.177Z,23.45
2023-12-12T04:41:22.320Z,25.65
2023-12-12T04:43:49.391Z,25.83
2023-12-12T04:46:20.685Z,25.45
2023-12-12T04:48:48.139Z,25.25
2023-12-12T04:51:15.312Z,25.23
2023-12-12T04:53:45.346Z,25.88
2023-12-12T04:56:13.107Z,25.88
2023-12-12T04:58:43.378Z,26.55
2023-12-12T05:01:10.512Z,25.90
2023-12-12T05:03:37.680Z,25.63
2023-12-12T05:06:04.999Z,23.52
2023-12-12T05:08:32.205Z,24.15
2023-12-12T05:10:59.948Z,24.38
2023-12-12T05:13:27.281Z,24.58
2023-12-12T05:15:57.485Z,25.67
2023-12-12T05:18:26.243Z,24.83
2023-12-12T05:20:54.046Z,25.77
2023-12-12T05:23:21.094Z,29.67
2023-12-12T05:25:48.002Z,28.83
2023-12-12T05:28:18.220Z,28.00
2023-12-12T05:30:48.283Z,30.27
2023-12-12T05:33:15.480Z,32.85
2023-12-12T05:35:42.394Z,32.92
2023-12-12T05:38:09.480Z,31.25
2023-12-12T05:40:39.394Z,26.73
2023-12-12T05:43:06.494Z,28.83
2023-12-12T05:45:33.962Z,28.05
2023-12-12T05:48:01.223Z,26.23
2023-12-12T05:50:28.163Z,27.88
2023-12-12T05:52:57.362Z,25.73
2023-12-12T05:55:25.209Z,25.63
2023-12-12T05:57:52.480Z,22.35
2023-12-12T06:00:22.394Z,23.48
2023-12-12T06:02:52.812Z,22.90
2023-12-12T06:05:20.758Z,25.05
2023-12-12T06:07:51.859Z,26.08
2023-12-12T06:10:20.677Z,25.70
2023-12-12T06:12:48.820Z,27.42
2023-12-12T06:15:15.769Z,24.42
2023-12-12T06:17:45.648Z,25.27
2023-12-12T06:20:13.162Z,24.05
2023-12-12T06:22:40.369Z,25.13
2023-12-12T06:25:07.870Z,27.52
2023-12-12T06:27:35.441Z,26.85
2023-12-12T06:30:02.627Z,27.27
2023-12-12T06:32:31.215Z,27.65
2023-12-12T06:34:58.293Z,27.30
2023-12-12T06:37:25.393Z,29.48
2023-12-12T06:39:55.657Z,30.63
2023-12-12T06:42:22.776Z,30.50
2023-12-12T06:44:49.899Z,30.00
2023-12-12T06:47:17.032Z,30.83
2023-12-12T06:49:47.324Z,29.20
2023-12-12T06:52:14.666Z,29.73
2023-12-12T06:54:41.574Z,28.65
2023-12-12T06:57:12.060Z,27.13
2023-12-12T06:59:38.925Z,27.67
2023-12-12T07:02:09.787Z,31.00
2023-12-12T07:04:37.810Z,29.45
2023-12-12T07:07:05.989Z,29.60
2023-12-12T07:09:32.897Z,31.25
2023-12-12T07:14:47.529Z,33.42
2023-12-12T07:17:14.691Z,33.95
2023-12-12T07:19:41.678Z,32.03
2023-12-12T07:22:09.408Z,30.58
2023-12-12T07:24:44.106Z,33.03
2023-12-12T07:27:11.640Z,33.17
2023-12-12T07:29:38.913Z,32.50
2023-12-12T07:32:06.776Z,32.63
2023-12-12T07:34:33.705Z,33.15
2023-12-12T07:37:03.416Z,35.92
2023-12-12T07:39:31.793Z,34.40
2023-12-12T07:41:59.039Z,32.00
2023-12-12T07:44:26.246Z,30.27
2023-12-12T07:46:53.451Z,30.52
2023-12-12T07:49:21.463Z,32.42
2023-12-12T07:51:52.300Z,32.38
2023-12-12T07:54:19.196Z,32.70
2023-12-12T07:56:54.514Z,29.20
2023-12-12T07:59:21.455Z,29.63
2023-12-12T08:01:53.418Z,30.45
2023-12-12T08:04:20.966Z,32.55
2023-12-12T08:06:48.177Z,29.77
2023-12-12T08:09:15.060Z,30.80
2023-12-12T08:11:42.167Z,32.05
2023-12-12T08:14:11.873Z,29.98
2023-12-12T08:16:39.099Z,30.17
2023-12-12T08:19:06.078Z,30.52
2023-12-12T08:21:37.052Z,28.42
2023-12-12T08:24:07.271Z,26.75
2023-12-12T08:26:42.706Z,30.05
2023-12-12T08:29:10.568Z,30.35
2023-12-12T08:31:40.393Z,28.27
2023-12-12T08:34:07.466Z,31.75
2023-12-12T08:36:35.216Z,33.47
2023-12-12T08:39:02.408Z,32.05
2023-12-12T08:41:32.041Z,32.47
2023-12-12T08:44:00.952Z,34.67
2023-12-12T08:46:29.967Z,35.85
2023-12-12T08:48:58.002Z,35.35
2023-12-12T08:51:25.621Z,33.75
2023-12-12T08:53:53.671Z,34.50
2023-12-12T08:56:23.242Z,32.63
2023-12-12T08:58:52.243Z,31.13
2023-12-12T09:01:19.633Z,31.10
2023-12-12T09:03:47.298Z,30.50
2023-12-12T09:06:17.498Z,28.30
2023-12-12T09:08:45.269Z,32.10
2023-12-12T09:11:15.129Z,30.80
2023-12-12T09:13:43.963Z,28.92
2023-12-12T09:16:11.493Z,27.95
2023-12-12T09:18:39.059Z,30.08
2023-12-12T09:21:08.091Z,27.02
2023-12-12T09:23:35.847Z,25.70
2023-12-12T09:26:03.165Z,25.00
2023-12-12T09:28:30.070Z,25.42
2023-12-12T09:30:57.232Z,25.10
2023-12-12T09:33:24.574Z,23.70
2023-12-12T09:35:51.676Z,25.05
2023-12-12T09:38:18.504Z,24.02
2023-12-12T09:40:45.652Z,22.25
2023-12-12T09:43:16.477Z,22.48
2023-12-12T09:45:49.475Z,23.38
2023-12-12T09:48:18.252Z,21.10
2023-12-12T09:50:48.644Z,19.48
2023-12-12T09:53:16.257Z,19.48
2023-12-12T09:55:45.008Z,20.25
2023-12-12T09:58:12.960Z,20.90
2023-12-12T10:00:43.746Z,21.02
2023-12-12T10:03:14.238Z,19.88
2023-12-12T10:05:47.665Z,18.23
2023-12-12T10:08:16.029Z,17.50
2023-12-12T10:10:43.572Z,16.85
2023-12-12T10:13:10.822Z,19.88
2023-12-12T10:15:39.176Z,9.65
2023-12-12T10:18:06.773Z,10.75
2023-12-12T10:20:36.833Z,18.00
2023-12-12T10:23:05.855Z,9.43
2023-12-12T10:25:34.494Z,10.18
2023-12-12T10:28:02.727Z,9.30
2023-12-12T10:30:30.151Z,16.77
2023-12-12T10:32:57.325Z,19.35
2023-12-12T10:35:26.609Z,21.75
2023-12-12T10:37:55.953Z,20.50
2023-12-12T10:40:24.397Z,17.20
2023-12-12T10:42:52.389Z,17.15
2023-12-12T10:45:21.875Z,16.50
2023-12-12T10:47:51.685Z,17.33
2023-12-12T10:50:20.176Z,15.45
2023-12-12T10:52:49.198Z,16.83
2023-12-12T10:55:17.513Z,16.05
2023-12-12T10:57:46.578Z,15.60
2023-12-12T11:00:18.162Z,14.27
2023-12-12T11:02:47.489Z,16.43
2023-12-12T11:05:16.327Z,14.68
2023-12-12T11:07:47.814Z,15.02
2023-12-12T11:10:16.783Z,14.57
2023-12-12T11:12:52.239Z,14.27
2023-12-12T11:15:20.734Z,13.43
2023-12-12T11:17:49.442Z,13.70
2023-12-12T11:20:18.896Z,12.10
2023-12-12T11:22:51.991Z,11.55
2023-12-12T11:25:24.217Z,11.30
2023-12-12T11:27:57.095Z,11.68
2023-12-12T11:30:50.365Z,8.48
2023-12-12T11:33:17.391Z,10.63
2023-12-12T11:35:47.144Z,9.68
2023-12-12T11:38:34.787Z,8.27
2023-12-12T11:41:15.725Z,7.45
2023-12-12T11:43:46.834Z,7.90
2023-12-12T11:46:24.703Z,7.18
2023-12-12T11:48:51.801Z,6.60
2023-12-12T11:51:47.630Z,6.72
2023-12-12T11:54:23.177Z,7.60
2023-12-12T11:56:59.727Z,7.38
2023-12-12T11:59:30.544Z,16.50
2023-12-12T12:01:57.647Z,22.25
2023-12-12T12:04:24.581Z,21.02
2023-12-12T12:06:54.101Z,21.15
2023-12-12T12:09:20.987Z,19.17
2023-12-12T12:11:54.633Z,19.52
2023-12-12T12:14:23.395Z,14.60
2023-12-12T12:16:54.522Z,13.55
2023-12-12T12:19:34.519Z,15.57
2023-12-12T12:22:06.012Z,12.23
2023-12-12T12:24:34.532Z,12.90
2023-12-12T12:27:01.722Z,12.25
2023-12-12T12:29:28.544Z,14.60
2023-12-12T12:31:55.743Z,13.48
2023-12-12T12:34:25.191Z,13.88
2023-12-12T12:37:00.017Z,13.50
2023-12-12T12:39:27.924Z,13.75
2023-12-12T12:41:56.003Z,13.00
2023-12-12T12:44:23.221Z,13.75
2023-12-12T12:46:53.567Z,13.38
2023-12-12T12:49:21.624Z,13.45
2023-12-12T12:51:48.834Z,13.93
2023-12-12T12:54:16.752Z,13.57
2023-12-12T12:56:45.937Z,13.60
2023-12-12T12:59:19.426Z,13.25
2023-12-12T13:04:14.075Z,13.63
2023-12-12T13:06:41.757Z,13.98
2023-12-12T13:09:18.607Z,14.52
2023-12-12T13:11:48.902Z,15.00
2023-12-12T13:14:15.768Z,15.00
2023-12-12T13:16:45.277Z,13.73
2023-12-12T13:19:14.637Z,12.63
2023-12-12T13:21:42.171Z,12.30
2023-12-12T13:24:09.104Z,11.93
2023-12-12T13:26:39.140Z,12.45
2023-12-12T13:29:05.965Z,10.43
2023-12-12T13:31:33.772Z,9.95
2023-12-12T13:34:07.269Z,10.68
2023-12-12T13:36:34.925Z,9.90
2023-12-12T13:39:01.763Z,10.63
2023-12-12T13:41:29.007Z,10.75
2023-12-12T13:43:59.348Z,9.75
2023-12-12T13:46:26.629Z,9.93
2023-12-12T13:48:53.625Z,10.38
2023-12-12T13:51:25.326Z,9.02
2023-12-12T13:53:57.539Z,9.15
2023-12-12T13:56:25.424Z,7.95
2023-12-12T13:58:58.781Z,9.68
2023-12-12T14:01:31.259Z,8.95
2023-12-12T14:04:02.493Z,9.20
2023-12-12T14:06:35.168Z,7.30
2023-12-12T14:09:01.943Z,9.20
2023-12-12T14:11:30.122Z,10.00
2023-12-12T14:13:57.007Z,7.90
2023-12-12T14:16:28.801Z,9.63
2023-12-12T14:18:57.723Z,10.52
2023-12-12T14:21:26.021Z,8.48
2023-12-12T14:23:52.898Z,9.00
2023-12-12T14:26:23.315Z,9.18
2023-12-12T14:28:51.229Z,8.98
2023-12-12T14:31:19.444Z,8.95
2023-12-12T14:33:47.136Z,9.10
2023-12-12T14:36:15.457Z,8.70
2023-12-12T14:38:45.040Z,7.85
2023-12-12T14:41:12.388Z,8.18
2023-12-12T14:43:47.082Z,9.90
2023-12-12T14:46:22.253Z,9.18
2023-12-12T14:48:49.210Z,9.25
2023-12-12T14:51:23.829Z,8.35
2023-12-12T14:53:51.940Z,10.40
2023-12-12T14:56:19.237Z,9.57
2023-12-12T14:58:46.882Z,9.48
2023-12-12T15:01:14.465Z,9.90
2023-12-12T15:03:43.601Z,10.88
2023-12-12T15:06:11.143Z,10.77
2023-12-12T15:08:39.479Z,9.25
2023-12-12T15:11:07.027Z,11.63
2023-12-12T15:13:34.207Z,11.05
2023-12-12T15:16:04.528Z,11.35
2023-12-12T15:18:31.469Z,12.02
2023-12-12T15:21:02.874Z,12.15
2023-12-12T15:23:29.693Z,13.07
2023-12-12T15:25:58.372Z,10.52
2023-12-12T15:28:27.745Z,10.50
2023-12-12T15:30:57.533Z,11.73
2023-12-12T15:33:26.774Z,10.38
2023-12-12T15:35:57.440Z,10.43
2023-12-12T15:38:24.285Z,11.68
2023-12-12T15:40:52.380Z,10.07
2023-12-12T15:43:19.295Z,11.65
2023-12-12T15:45:46.420Z,11.98
2023-12-12T15:48:13.478Z,10.85
2023-12-12T15:50:41.924Z,11.05
2023-12-12T15:53:08.956Z,10.10
2023-12-12T15:55:36.124Z,10.43
2023-12-12T15:58:03.137Z,11.27
2023-12-12T16:00:33.042Z,11.70
2023-12-12T16:02:59.999Z,11.63
2023-12-12T16:05:27.621Z,11.07
2023-12-12T16:07:57.714Z,10.57
2023-12-12T16:10:24.819Z,11.30
2023-12-12T16:12:57.651Z,10.23
2023-12-12T16:15:25.250Z,12.05
2023-12-12T16:17:55.417Z,12.10
2023-12-12T16:20:27.174Z,10.95
2023-12-12T16:22:54.949Z,10.82
2023-12-12T16:25:28.067Z,12.38
2023-12-12T16:27:55.100Z,12.02
2023-12-12T16:30:32.077Z,11.27
2023-12-12T16:33:00.923Z,11.90
2023-12-12T16:35:31.883Z,13.18
2023-12-12T16:38:01.884Z,12.05
2023-12-12T16:40:29.042Z,12.43
2023-12-12T16:42:56.090Z,13.18
2023-12-12T16:45:23.133Z,11.45
2023-12-12T16:47:50.012Z,14.77
2023-12-12T16:50:21.373Z,13.65
2023-12-12T16:52:48.298Z,12.63
2023-12-12T16:55:15.692Z,13.35
2023-12-12T16:57:42.615Z,12.10
2023-12-12T17:00:12.097Z,14.38
2023-12-12T17:02:42.572Z,13.60
2023-12-12T17:05:12.898Z,14.15
2023-12-12T17:07:39.938Z,14.85
2023-12-12T17:10:10.204Z,15.18
2023-12-12T17:12:37.571Z,15.55
2023-12-12T17:15:07.811Z,16.20
2023-12-12T17:17:35.291Z,17.08
2023-12-12T17:20:03.620Z,15.88
2023-12-12T17:22:35.084Z,15.48
2023-12-12T17:25:02.199Z,16.88
2023-12-12T17:27:29.047Z,15.73
2023-12-12T17:29:56.126Z,16.92
2023-12-12T17:32:28.006Z,15.88
2023-12-12T17:35:00.005Z,15.82
2023-12-12T17:37:27.027Z,15.45
2023-12-12T17:39:54.171Z,17.65
2023-12-12T17:42:25.899Z,17.52
2023-12-12T17:44:53.750Z,16.30
2023-12-12T17:47:20.628Z,16.75
2023-12-12T17:49:47.794Z,16.08
2023-12-12T17:52:16.152Z,17.30
2023-12-12T17:54:43.382Z,16.50
2023-12-12T17:57:11.622Z,16.27
2023-12-12T17:59:42.186Z,15.07
2023-12-12T18:02:12.274Z,15.35
2023-12-12T18:04:41.006Z,15.60
2023-12-12T18:07:12.122Z,15.45
2023-12-12T18:09:40.746Z,17.05
2023-12-12T18:12:08.044Z,16.92
2023-12-12T18:14:35.177Z,17.35
2023-12-12T18:17:04.998Z,17.33
2023-12-12T18:19:32.984Z,16.65
2023-12-12T18:21:59.926Z,18.17
2023-12-12T18:24:30.037Z,18.05
2023-12-12T18:26:58.493Z,18.95
2023-12-12T18:29:27.095Z,18.33
2023-12-12T18:31:54.691Z,19.38
2023-12-12T18:34:30.765Z,22.20
2023-12-12T18:36:57.730Z,21.52
2023-12-12T18:39:27.526Z,20.52
2023-12-12T18:41:56.862Z,20.70
2023-12-12T18:44:23.979Z,20.83
2023-12-12T18:46:51.326Z,20.60
2023-12-12T18:49:18.675Z,22.33
2023-12-12T18:51:45.598Z,22.33
2023-12-12T18:54:15.562Z,20.90
2023-12-12T18:56:44.927Z,21.42
2023-12-12T18:59:12.354Z,22.15
2023-12-12T19:01:39.313Z,20.55
2023-12-12T19:04:08.127Z,22.25
2023-12-12T19:06:37.952Z,20.65
2023-12-12T19:09:07.937Z,21.13
2023-12-12T19:11:40.146Z,20.92
2023-12-12T19:14:07.211Z,20.98
2023-12-12T19:16:37.583Z,20.95
2023-12-12T19:19:04.800Z,21.70
2023-12-12T19:21:31.697Z,20.67
2023-12-12T19:23:58.791Z,21.10
2023-12-12T19:26:25.874Z,22.65
2023-12-12T19:28:55.264Z,21.98
2023-12-12T19:31:22.216Z,21.00
2023-12-12T19:33:49.452Z,22.63
2023-12-12T19:36:16.688Z,22.13
2023-12-12T19:38:43.794Z,22.65
2023-12-12T19:41:10.796Z,23.40
2023-12-12T19:43:38.017Z,21.73
2023-12-12T19:46:09.020Z,23.80
2023-12-12T19:48:37.458Z,23.90
2023-12-12T19:51:07.324Z,24.23
2023-12-12T19:53:39.656Z,25.73
2023-12-12T19:56:06.800Z,24.92
2023-12-12T19:58:36.612Z,25.92
2023-12-12T20:01:03.640Z,24.25
2023-12-12T20:03:31.627Z,27.55
2023-12-12T20:06:03.623Z,25.73
2023-12-12T20:08:34.501Z,24.70
2023-12-12T20:11:05.038Z,25.77
2023-12-12T20:13:32.191Z,24.77
2023-12-12T20:15:59.026Z,25.30
2023-12-12T20:18:27.256Z,26.30
2023-12-12T20:20:54.176Z,26.95
2023-12-12T20:23:22.299Z,26.95
2023-12-12T20:25:49.215Z,26.42
2023-12-12T20:28:19.057Z,26.45
2023-12-12T20:30:52.073Z,26.85
2023-12-12T20:33:22.073Z,24.85
2023-12-12T20:35:48.919Z,25.33
2023-12-12T20:38:16.440Z,25.48
2023-12-12T20:40:43.427Z,26.50
2023-12-12T20:43:10.956Z,27.08
2023-12-12T20:45:38.956Z,26.92
2023-12-12T20:48:09.009Z,26.45
2023-12-12T20:50:44.576Z,26.70
2023-12-12T20:53:11.845Z,29.23
2023-12-12T20:55:41.391Z,28.38
2023-12-12T20:58:18.283Z,30.15
2023-12-12T21:00:45.547Z,30.23
2023-12-12T21:03:13.397Z,29.80
2023-12-12T21:05:41.527Z,29.58
2023-12-12T21:08:08.702Z,32.00
2023-12-12T21:10:37.452Z,29.55
2023-12-12T21:13:07.594Z,30.20
2023-12-12T21:15:34.523Z,29.10
2023-12-12T21:18:01.784Z,29.65
2023-12-12T21:20:29.747Z,30.33
2023-12-12T21:22:57.103Z,32.90
2023-12-12T21:25:24.002Z,30.27
2023-12-12T21:27:51.490Z,31.35
2023-12-12T21:30:19.472Z,30.98
2023-12-12T21:32:47.494Z,30.77
2023-12-12T21:35:14.386Z,30.52
2023-12-12T21:37:44.602Z,28.35
2023-12-12T21:40:12.311Z,29.88
2023-12-12T21:42:39.566Z,28.13
2023-12-12T21:45:06.805Z,28.95
2023-12-12T21:47:34.291Z,27.70
2023-12-12T21:50:01.432Z,28.45
2023-12-12T21:52:30.825Z,26.17
2023-12-12T21:54:57.935Z,27.85
2023-12-12T21:57:26.060Z,26.88
2023-12-12T21:59:55.641Z,26.13
2023-12-12T22:02:23.210Z,28.17
2023-12-12T22:04:54.054Z,28.33
2023-12-12T22:07:24.186Z,27.05
2023-12-12T22:09:51.072Z,27.30
2023-12-12T22:12:19.227Z,25.35
2023-12-12T22:14:46.199Z,25.63
2023-12-12T22:17:14.508Z,27.67
2023-12-12T22:19:54.498Z,25.65
2023-12-12T22:22:28.474Z,24.75
2023-12-12T22:24:55.284Z,24.70
2023-12-12T22:27:22.389Z,27.48
2023-12-12T22:29:51.991Z,26.80
2023-12-12T22:32:20.404Z,26.45
2023-12-12T22:34:47.244Z,25.30
2023-12-12T22:37:14.334Z,25.05
2023-12-12T22:39:43.780Z,26.55
2023-12-12T22:42:11.087Z,25.48
2023-12-12T22:44:37.945Z,26.85
2023-12-12T22:47:05.175Z,30.27
2023-12-12T22:49:32.138Z,27.60
2023-12-12T22:51:59.475Z,29.10
2023-12-12T22:54:26.250Z,25.13
2023-12-12T22:56:56.345Z,23.20
2023-12-12T22:59:24.445Z,22.50
2023-12-12T23:01:52.515Z,23.90
2023-12-12T23:04:19.409Z,22.27
2023-12-12T23:06:47.314Z,23.40
2023-12-12T23:09:16.324Z,23.70
2023-12-12T23:11:43.435Z,24.75
2023-12-12T23:14:10.246Z,25.25
2023-12-12T23:16:40.265Z,23.15
2023-12-12T23:19:07.582Z,22.92
2023-12-12T23:21:37.030Z,23.77
2023-12-12T23:24:05.792Z,23.15
2023-12-12T23:26:35.222Z,23.13
2023-12-12T23:29:02.080Z,23.58
2023-12-12T23:31:29.776Z,22.65
2023-12-12T23:33:56.818Z,22.35
2023-12-12T23:36:23.956Z,24.20
2023-12-12T23:38:50.821Z,22.88
2023-12-12T23:41:17.910Z,22.02
2023-12-12T23:43:47.915Z,23.15
2023-12-12T23:46:17.980Z,22.75
2023-12-12T23:48:44.791Z,23.90
2023-12-12T23:51:21.309Z,24.35
2023-12-12T23:53:48.230Z,22.40
2023-12-12T23:56:15.361Z,23.05
2023-12-12T23:58:42.380Z,23.25
